首页
METAR-TAF:

METAR-TAF

机场 :

Mecklenburg-Brunswick Regional Airport

South Hill, 弗吉尼亚州, 美国

纬度: 36-41-19N, 经度: 078-03-15W, 海拔: 135米

当前天气观测

该预报发布于27分钟前的09:15 UTC
静风
温度 4°C
湿度 93%
气压 1026 hPa
能見度: 16.1公里
阴天层高于400英尺

METAR: KAVC 150915Z AUTO 00000KT 10SM OVC004 04/03 A3030 RMK AO2 T00350025

时间: 04:42 (09:42 UTC)


TAF: 丢失

超过4000个机场的气象观测和天气预报(METAR&TAF报告)。

可查询的气象台以黄色和红色小点在地图上表示。

将鼠标移到小点上方,可查看气象台名称。

然后点击查看天气观测和预报。

如需切换地图:点击带黑十字的绿色按钮放大地图;点击带横线的绿色按钮缩小地图;或者点击绿色箭头查看邻近地区的地图。


METAR-TAF: